Time;durP1;ratioP1;P1;durP2;ratioP2;P2;SDS_P1;SDS_P2;PMS_P1;PMS_P2;Temp;Humidity;BMP_temperature;BMP_pressure;BME280_temperature;BME280_humidity;BME280_pressure;Samples;Min_cycle;Max_cycle;Signal;HPM_P1;HPM_P2
2024/01/28 00:00:25;;;;;;;;;;;;;;;12.17;55.99;98465.13;4195673;28;5755;-66
2024/01/28 00:02:28;;;;;;;;;;;;;;;12.18;55.89;98474.75;4196863;28;5645;-66
2024/01/28 00:04:31;;;;;;;;;;;;;;;12.16;56.08;98466.13;4198816;28;6435;-66
2024/01/28 00:06:33;;;;;;;;;;;;;;;12.14;55.67;98470.78;4196355;28;5687;-65
2024/01/28 00:08:38;;;;;;;;;;;;;;;12.11;55.98;98468.41;4190188;28;5737;-65
2024/01/28 00:10:41;;;;;;;;;;;;;;;12.12;56.09;98472.75;4195133;28;6375;-65
2024/01/28 00:12:44;;;;;;;;;;;;;;;12.10;55.84;98469.41;4201569;28;5865;-65
2024/01/28 00:14:47;;;;;;;;;;;;;;;12.08;55.85;98468.75;4192636;28;5781;-65
2024/01/28 00:16:51;;;;;;;;;;;;;;;12.09;55.73;98465.09;4197637;28;5806;-65
2024/01/28 00:18:57;;;;;;;;;;;;;;;12.07;56.00;98467.09;4197415;28;5699;-65
2024/01/28 00:21:00;;;;;;;;;;;;;;;12.09;55.89;98459.81;4197383;28;5713;-65
2024/01/28 00:23:03;;;;;;;;;;;;;;;12.08;55.91;98463.44;4192270;28;5678;-65
2024/01/28 00:25:08;;;;;;;;;;;;;;;12.07;56.07;98466.25;4199338;28;5690;-65
2024/01/28 00:27:10;;;;;;;;;;;;;;;12.05;56.00;98463.78;4193092;28;5693;-64
2024/01/28 00:29:13;;;;;;;;;;;;;;;12.04;55.85;98467.44;4201329;28;5785;-64
2024/01/28 00:31:15;;;;;;;;;;;;;;;12.02;56.00;98456.16;4199161;28;5818;-66
2024/01/28 00:33:18;;;;;;;;;;;;;;;12.01;56.27;98457.16;4199462;28;5697;-64
2024/01/28 00:35:21;;;;;;;;;;;;;;;12.01;56.22;98459.81;4198824;28;5682;-65
2024/01/28 00:37:24;;;;;;;;;;;;;;;12.02;55.96;98458.81;4198045;28;5693;-65
2024/01/28 00:39:28;;;;;;;;;;;;;;;12.02;55.99;98464.13;4188246;28;5769;-65
2024/01/28 00:41:33;;;;;;;;;;;;;;;12.03;56.27;98455.16;4198814;28;6400;-65
2024/01/28 00:43:40;;;;;;;;;;;;;;;12.03;56.23;98455.16;4190381;28;5703;-65
2024/01/28 00:45:42;;;;;;;;;;;;;;;12.01;55.99;98448.38;4197907;28;5699;-65
2024/01/28 00:47:46;;;;;;;;;;;;;;;11.98;56.15;98451.31;4199200;28;5737;-65
2024/01/28 00:49:49;;;;;;;;;;;;;;;11.97;56.31;98450.50;4195586;28;5761;-65
2024/01/28 00:51:52;;;;;;;;;;;;;;;11.95;56.14;98453.31;4201044;28;5710;-65
2024/01/28 00:53:55;;;;;;;;;;;;;;;11.92;56.07;98458.94;4200664;28;5920;-65
2024/01/28 00:55:59;;;;;;;;;;;;;;;11.89;56.15;98458.41;4198133;28;5802;-65
2024/01/28 00:58:03;;;;;;;;;;;;;;;11.88;56.08;98451.47;4196861;28;5823;-65
2024/01/28 01:00:08;;;;;;;;;;;;;;;11.87;56.41;98449.81;4191019;28;5788;-65
2024/01/28 01:02:10;;;;;;;;;;;;;;;11.85;56.42;98441.19;4200370;28;5075;-65
2024/01/28 01:04:13;;;;;;;;;;;;;;;11.86;56.33;98446.31;4198051;28;5760;-66
2024/01/28 01:06:16;;;;;;;;;;;;;;;11.87;56.29;98445.34;4198036;28;5708;-65
2024/01/28 01:08:19;;;;;;;;;;;;;;;11.89;56.61;98445.16;4199503;28;5682;-65
2024/01/28 01:10:25;;;;;;;;;;;;;;;11.90;56.30;98442.38;4195263;28;5799;-66
2024/01/28 01:12:28;;;;;;;;;;;;;;;11.90;56.39;98444.19;4194474;28;5860;-66
2024/01/28 01:14:35;;;;;;;;;;;;;;;11.93;56.65;98449.16;4200025;28;5689;-66
2024/01/28 01:16:38;;;;;;;;;;;;;;;11.94;56.55;98450.81;4192374;28;5723;-66
2024/01/28 01:18:42;;;;;;;;;;;;;;;11.95;56.26;98455.13;4197537;28;6395;-66
2024/01/28 01:20:44;;;;;;;;;;;;;;;11.95;56.45;98449.84;4192174;28;5670;-66
2024/01/28 01:22:48;;;;;;;;;;;;;;;11.98;56.50;98446.03;4200003;28;5690;-66
2024/01/28 01:24:51;;;;;;;;;;;;;;;11.98;56.26;98451.31;4197675;28;5690;-66
2024/01/28 01:26:54;;;;;;;;;;;;;;;11.97;56.58;98447.84;4197387;28;5914;-66
2024/01/28 01:28:57;;;;;;;;;;;;;;;11.97;56.42;98447.84;4190217;28;5083;-65
2024/01/28 01:31:03;;;;;;;;;;;;;;;11.98;56.58;98438.06;4197783;28;5836;-66
2024/01/28 01:33:06;;;;;;;;;;;;;;;11.95;56.61;98439.22;4197640;28;5694;-65
2024/01/28 01:35:10;;;;;;;;;;;;;;;11.94;56.38;98445.53;4199419;28;5694;-65
2024/01/28 01:37:13;;;;;;;;;;;;;;;11.93;56.44;98446.53;4193519;28;5859;-65
2024/01/28 01:39:17;;;;;;;;;;;;;;;11.90;56.34;98442.38;4198198;28;5690;-66
2024/01/28 01:41:20;;;;;;;;;;;;;;;11.88;56.39;98443.50;4197500;28;5734;-65
2024/01/28 01:43:22;;;;;;;;;;;;;;;11.86;56.45;98443.66;4191945;28;5710;-66
2024/01/28 01:45:24;;;;;;;;;;;;;;;11.85;56.45;98449.13;4199328;28;5695;-66
2024/01/28 01:47:29;;;;;;;;;;;;;;;11.82;56.43;98449.47;4200086;28;5715;-66
2024/01/28 01:49:33;;;;;;;;;;;;;;;11.81;56.70;98448.63;4198729;28;6457;-66
2024/01/28 01:51:36;;;;;;;;;;;;;;;11.83;56.79;98451.13;4199477;28;5686;-65
2024/01/28 01:53:39;;;;;;;;;;;;;;;11.83;56.59;98451.13;4197853;28;5314;-65
2024/01/28 01:55:43;;;;;;;;;;;;;;;11.86;56.48;98451.63;4191239;28;7715;-66
2024/01/28 01:57:46;;;;;;;;;;;;;;;11.87;56.80;98444.50;4196917;28;5657;-65
2024/01/28 01:59:49;;;;;;;;;;;;;;;11.87;56.69;98452.44;4197318;28;5777;-66
2024/01/28 02:01:54;;;;;;;;;;;;;;;11.89;56.87;98447.81;4198886;28;5966;-66
2024/01/28 02:03:58;;;;;;;;;;;;;;;11.91;56.54;98453.81;4194075;28;5690;-66
2024/01/28 02:06:01;;;;;;;;;;;;;;;11.88;56.57;98441.69;4193429;28;5712;-66
2024/01/28 02:08:05;;;;;;;;;;;;;;;11.88;56.62;98439.03;4194592;28;5966;-66
2024/01/28 02:10:09;;;;;;;;;;;;;;;11.90;56.71;98438.91;4196336;28;6388;-65
2024/01/28 02:12:12;;;;;;;;;;;;;;;11.90;56.77;98436.25;4197749;28;5645;-65
2024/01/28 02:14:21;;;;;;;;;;;;;;;11.91;56.64;98443.22;4191730;28;5773;-65
2024/01/28 02:16:24;;;;;;;;;;;;;;;11.92;56.92;98436.91;4188269;28;5712;-65
2024/01/28 02:18:27;;;;;;;;;;;;;;;11.94;56.83;98433.09;4194507;28;6387;-65
2024/01/28 02:20:30;;;;;;;;;;;;;;;11.94;56.94;98430.44;4191817;28;5703;-65
2024/01/28 02:22:34;;;;;;;;;;;;;;;11.94;56.55;98433.09;4199733;28;5107;-65
2024/01/28 02:24:38;;;;;;;;;;;;;;;11.94;56.85;98438.41;4197749;28;7699;-65
2024/01/28 02:26:41;;;;;;;;;;;;;;;11.94;56.66;98435.75;4194212;28;5690;-65
2024/01/28 02:28:44;;;;;;;;;;;;;;;11.95;57.02;98432.09;4194322;28;5690;-65
2024/01/28 02:30:47;;;;;;;;;;;;;;;11.96;56.70;98432.94;4195996;28;5706;-66
2024/01/28 02:32:50;;;;;;;;;;;;;;;11.95;56.55;98428.63;4197774;28;5840;-65
2024/01/28 02:34:54;;;;;;;;;;;;;;;11.95;56.65;98436.59;4190607;28;5757;-65
2024/01/28 02:36:57;;;;;;;;;;;;;;;11.96;57.00;98432.94;4199746;28;5834;-65
2024/01/28 02:39:00;;;;;;;;;;;;;;;11.97;56.67;98433.78;4194470;28;5711;-65
2024/01/28 02:41:05;;;;;;;;;;;;;;;11.97;56.71;98436.41;4188939;28;5754;-65
2024/01/28 02:43:07;;;;;;;;;;;;;;;11.95;56.62;98429.47;4195622;28;5802;-65
2024/01/28 02:45:10;;;;;;;;;;;;;;;11.96;56.69;98430.28;4200882;28;5959;-65
2024/01/28 02:47:13;;;;;;;;;;;;;;;11.96;56.96;98432.94;4202022;28;5789;-65
2024/01/28 02:49:17;;;;;;;;;;;;;;;11.95;56.81;98428.63;4203257;28;5690;-65
2024/01/28 02:51:20;;;;;;;;;;;;;;;11.97;56.72;98429.28;4200572;28;5768;-65
2024/01/28 02:53:23;;;;;;;;;;;;;;;11.97;56.94;98426.66;4201443;28;5716;-65
2024/01/28 02:55:25;;;;;;;;;;;;;;;11.97;56.73;98421.34;4202013;28;5672;-65
2024/01/28 02:57:30;;;;;;;;;;;;;;;11.98;56.98;98419.53;4202811;28;5685;-65
2024/01/28 02:59:33;;;;;;;;;;;;;;;11.97;56.77;98423.16;4202891;28;5697;-66
2024/01/28 03:01:45;;;;;;;;;;;;;;;11.97;56.67;98428.47;4201611;28;5690;-65
2024/01/28 03:03:48;;;;;;;;;;;;;;;11.95;56.81;98424.16;4205825;28;5952;-66
2024/01/28 03:05:50;;;;;;;;;;;;;;;11.93;56.75;98422.66;4193222;28;5724;-65
2024/01/28 03:07:53;;;;;;;;;;;;;;;11.91;56.63;98408.75;4198094;28;5678;-65
2024/01/28 03:09:56;;;;;;;;;;;;;;;11.91;56.71;98416.72;4200221;28;5961;-65
2024/01/28 03:12:00;;;;;;;;;;;;;;;11.90;56.90;98409.75;4197828;28;5666;-65
2024/01/28 03:14:06;;;;;;;;;;;;;;;11.88;56.89;98411.72;4191378;28;5697;-65
2024/01/28 03:16:10;;;;;;;;;;;;;;;11.88;56.87;98412.53;4201455;28;5695;-65
2024/01/28 03:18:12;;;;;;;;;;;;;;;11.88;56.70;98411.72;4202505;28;5793;-65
2024/01/28 03:20:17;;;;;;;;;;;;;;;11.88;56.72;98403.75;4201198;28;6389;-65
2024/01/28 03:22:20;;;;;;;;;;;;;;;11.87;56.76;98405.56;4202253;28;5682;-66
2024/01/28 03:24:23;;;;;;;;;;;;;;;11.87;56.68;98408.22;4202201;28;5808;-66
2024/01/28 03:26:26;;;;;;;;;;;;;;;11.87;56.59;98412.69;4200132;28;5770;-66
2024/01/28 03:28:29;;;;;;;;;;;;;;;11.85;56.63;98406.75;4194606;28;5701;-66
2024/01/28 03:30:34;;;;;;;;;;;;;;;11.85;56.69;98404.09;4201653;28;5849;-66
2024/01/28 03:32:36;;;;;;;;;;;;;;;11.84;56.74;98413.03;4202061;28;5761;-66
2024/01/28 03:34:39;;;;;;;;;;;;;;;11.84;56.64;98407.72;4192171;28;5761;-66
2024/01/28 03:36:42;;;;;;;;;;;;;;;11.82;56.71;98412.38;4201710;28;5690;-66
2024/01/28 03:38:45;;;;;;;;;;;;;;;11.81;56.97;98411.53;4201839;28;5690;-66
2024/01/28 03:40:48;;;;;;;;;;;;;;;11.80;56.90;98412.53;4201401;28;5697;-65
2024/01/28 03:42:51;;;;;;;;;;;;;;;11.78;56.93;98410.97;4201715;28;5699;-66
2024/01/28 03:44:54;;;;;;;;;;;;;;;11.77;56.71;98406.69;4201494;28;5709;-66
2024/01/28 03:46:58;;;;;;;;;;;;;;;11.74;56.83;98405.19;4193775;28;5809;-66
2024/01/28 03:49:01;;;;;;;;;;;;;;;11.73;57.00;98406.19;4201999;28;5762;-66
2024/01/28 03:51:06;;;;;;;;;;;;;;;11.75;56.72;98408.66;4199039;28;5722;-66
2024/01/28 03:53:09;;;;;;;;;;;;;;;11.74;56.93;98407.84;4199749;28;5781;-66
2024/01/28 03:55:13;;;;;;;;;;;;;;;11.72;56.89;98404.53;4192787;28;5786;-66
2024/01/28 03:57:16;;;;;;;;;;;;;;;11.73;56.88;98397.41;4194689;28;5794;-66
2024/01/28 03:59:19;;;;;;;;;;;;;;;11.74;56.60;98401.72;4201118;28;5706;-66
2024/01/28 04:01:31;;;;;;;;;;;;;;;11.71;56.90;98404.69;4193025;28;5711;-65
2024/01/28 04:03:36;;;;;;;;;;;;;;;11.70;56.67;98403.03;4186747;28;6527;-65
2024/01/28 04:05:40;;;;;;;;;;;;;;;11.69;56.70;98401.38;4197372;28;5840;-65
2024/01/28 04:07:42;;;;;;;;;;;;;;;11.68;56.85;98397.06;4193403;28;5730;-65
2024/01/28 04:09:45;;;;;;;;;;;;;;;11.65;56.93;98404.31;4203416;28;6645;-65
2024/01/28 04:11:49;;;;;;;;;;;;;;;11.65;56.69;98399.03;4201644;28;5816;-66
2024/01/28 04:14:11;;;;;;;;;;;;;;;11.68;56.69;98397.06;4186311;28;5666;-66
2024/01/28 04:16:13;;;;;;;;;;;;;;;11.68;56.80;98397.06;4199567;28;5784;-66
2024/01/28 04:18:17;;;;;;;;;;;;;;;11.66;56.92;98386.59;4193879;28;5683;-65
2024/01/28 04:20:22;;;;;;;;;;;;;;;11.64;56.95;98396.53;4200513;28;5686;-65
2024/01/28 04:22:24;;;;;;;;;;;;;;;11.64;56.52;98399.19;4201656;28;5702;-66
2024/01/28 04:24:27;;;;;;;;;;;;;;;11.62;56.69;98387.94;4200833;28;5806;-66
2024/01/28 04:26:30;;;;;;;;;;;;;;;11.61;56.78;98388.94;4191181;28;5694;-65
2024/01/28 04:28:33;;;;;;;;;;;;;;;11.61;56.78;98399.53;4194006;28;5828;-65
2024/01/28 04:30:36;;;;;;;;;;;;;;;11.59;56.53;98391.75;4200694;28;5682;-66
2024/01/28 04:32:39;;;;;;;;;;;;;;;11.54;56.46;98396.66;4201470;28;6774;-66
2024/01/28 04:34:42;;;;;;;;;;;;;;;11.52;56.68;98396.00;4200692;28;5769;-65
2024/01/28 04:36:47;;;;;;;;;;;;;;;11.51;56.73;98399.66;4195858;28;5693;-65
2024/01/28 04:38:50;;;;;;;;;;;;;;;11.49;56.65;98398.97;4201316;28;5785;-65
2024/01/28 04:40:53;;;;;;;;;;;;;;;11.51;56.78;98404.94;4194864;28;5731;-65
2024/01/28 04:42:57;;;;;;;;;;;;;;;11.52;56.72;98401.31;4197586;28;5686;-65
2024/01/28 04:45:00;;;;;;;;;;;;;;;11.52;56.44;98405.78;4200282;28;6074;-66
2024/01/28 04:47:03;;;;;;;;;;;;;;;11.52;56.41;98403.94;4199529;28;5793;-65
2024/01/28 04:49:05;;;;;;;;;;;;;;;11.51;56.43;98397.00;4191105;28;5719;-65
2024/01/28 04:51:08;;;;;;;;;;;;;;;11.50;56.66;98395.34;4199590;28;5698;-66
2024/01/28 04:53:13;;;;;;;;;;;;;;;11.50;56.74;98398.00;4192893;28;5686;-65
2024/01/28 04:55:16;;;;;;;;;;;;;;;11.49;56.35;98393.69;4198788;28;5653;-66
2024/01/28 04:57:19;;;;;;;;;;;;;;;11.48;56.45;98397.31;4201081;28;5781;-66
2024/01/28 04:59:22;;;;;;;;;;;;;;;11.47;56.50;98390.38;4192730;28;5776;-66
2024/01/28 05:01:25;;;;;;;;;;;;;;;11.46;56.70;98394.00;4199898;28;5809;-66
2024/01/28 05:03:27;;;;;;;;;;;;;;;11.44;56.63;98385.41;4192403;28;5783;-66
2024/01/28 05:05:30;;;;;;;;;;;;;;;11.45;56.58;98397.66;4198374;28;5689;-66
2024/01/28 05:07:34;;;;;;;;;;;;;;;11.43;56.43;98388.19;4199842;28;5705;-66
2024/01/28 05:09:39;;;;;;;;;;;;;;;11.42;56.57;98392.66;4198711;28;5690;-66
2024/01/28 05:11:41;;;;;;;;;;;;;;;11.42;56.79;98391.81;4199846;28;5809;-66
2024/01/28 05:13:44;;;;;;;;;;;;;;;11.39;56.41;98392.97;4195107;28;5701;-66
2024/01/28 05:15:48;;;;;;;;;;;;;;;11.38;56.60;98389.50;4199211;28;5798;-66
2024/01/28 05:17:51;;;;;;;;;;;;;;;11.36;56.34;98388.00;4188635;28;5818;-66
2024/01/28 05:19:54;;;;;;;;;;;;;;;11.35;56.80;98391.66;4194969;28;5853;-66
2024/01/28 05:21:57;;;;;;;;;;;;;;;11.33;56.59;98388.34;4194306;28;5674;-66
2024/01/28 05:24:00;;;;;;;;;;;;;;;11.31;56.62;98385.00;4186155;28;5745;-65
2024/01/28 05:26:05;;;;;;;;;;;;;;;11.30;56.58;98384.16;4197158;28;5789;-66
2024/01/28 05:28:09;;;;;;;;;;;;;;;11.29;56.71;98385.16;4194530;28;5715;-65
2024/01/28 05:30:13;;;;;;;;;;;;;;;11.29;56.39;98386.97;4196353;28;5833;-65
2024/01/28 05:32:16;;;;;;;;;;;;;;;11.29;56.76;98379.03;4192127;28;5852;-66
2024/01/28 05:34:19;;;;;;;;;;;;;;;11.28;56.46;98380.03;4184458;28;5756;-66
2024/01/28 05:36:23;;;;;;;;;;;;;;;11.27;56.63;98384.50;4197858;28;5731;-65
2024/01/28 05:38:26;;;;;;;;;;;;;;;11.26;56.55;98382.00;4200213;28;5694;-65
2024/01/28 05:40:29;;;;;;;;;;;;;;;11.26;56.56;98387.31;4199680;28;5691;-65
2024/01/28 05:42:33;;;;;;;;;;;;;;;11.25;56.66;98385.63;4199746;28;5784;-66
2024/01/28 05:44:36;;;;;;;;;;;;;;;11.24;56.38;98378.69;4190988;28;5744;-65
2024/01/28 05:46:39;;;;;;;;;;;;;;;11.25;56.57;98378.53;4199594;28;5698;-66
2024/01/28 05:48:41;;;;;;;;;;;;;;;11.24;56.63;98381.34;4196531;28;5694;-65
2024/01/28 05:50:44;;;;;;;;;;;;;;;11.24;56.72;98378.69;4198315;28;5868;-65
2024/01/28 05:52:48;;;;;;;;;;;;;;;11.23;56.35;98384.97;4194493;28;5697;-66
2024/01/28 05:54:51;;;;;;;;;;;;;;;11.22;56.71;98381.50;4192126;28;5784;-66
2024/01/28 05:56:54;;;;;;;;;;;;;;;11.21;56.45;98386.94;4197181;28;5106;-64
2024/01/28 05:58:58;;;;;;;;;;;;;;;11.22;56.57;98393.91;4194758;28;7703;-66
2024/01/28 06:01:06;;;;;;;;;;;;;;;11.22;56.84;98391.25;4195613;28;5118;-65
2024/01/28 06:03:10;;;;;;;;;;;;;;;11.21;56.84;98392.22;4190029;28;5690;-66
2024/01/28 06:05:13;;;;;;;;;;;;;;;11.20;56.86;98391.38;4200966;28;5669;-67
2024/01/28 06:07:14;;;;;;;;;;;;;;;11.19;56.84;98394.19;4201045;28;5777;-67
2024/01/28 06:09:18;;;;;;;;;;;;;;;11.15;56.85;98398.16;4192164;28;5689;-66
2024/01/28 06:11:21;;;;;;;;;;;;;;;11.14;57.00;98391.22;4199570;28;5698;-66
2024/01/28 06:13:23;;;;;;;;;;;;;;;11.14;57.10;98394.69;4190692;28;5627;-67
2024/01/28 06:15:28;;;;;;;;;;;;;;;11.14;57.25;98399.16;4191524;28;5156;-67
2024/01/28 06:17:31;;;;;;;;;;;;;;;11.14;56.90;98397.34;4192631;28;5693;-67
2024/01/28 06:19:34;;;;;;;;;;;;;;;11.14;57.14;98399.97;4199682;28;6379;-67
2024/01/28 06:21:37;;;;;;;;;;;;;;;11.14;57.09;98405.28;4196017;28;5818;-67
2024/01/28 06:23:40;;;;;;;;;;;;;;;11.17;57.31;98393.53;4199337;28;6620;-67
2024/01/28 06:25:44;;;;;;;;;;;;;;;11.16;57.29;98407.75;4200011;28;5864;-67
2024/01/28 06:27:48;;;;;;;;;;;;;;;11.15;57.20;98395.50;4196776;28;5805;-67
2024/01/28 06:29:51;;;;;;;;;;;;;;;11.16;57.09;98391.88;4195320;28;6367;-68
2024/01/28 06:31:54;;;;;;;;;;;;;;;11.17;57.33;98394.38;4195987;28;5711;-67
2024/01/28 06:33:57;;;;;;;;;;;;;;;11.16;57.08;98389.22;4196053;28;5741;-67
2024/01/28 06:36:00;;;;;;;;;;;;;;;11.17;57.20;98388.25;4194653;28;5741;-67
2024/01/28 06:38:03;;;;;;;;;;;;;;;11.18;57.09;98389.91;4191668;28;5670;-67
2024/01/28 06:40:08;;;;;;;;;;;;;;;11.19;57.28;98380.97;4192156;28;5714;-67
2024/01/28 06:42:11;;;;;;;;;;;;;;;11.18;57.12;98381.97;4194784;28;5788;-67
2024/01/28 06:44:14;;;;;;;;;;;;;;;11.20;57.18;98382.63;4199920;28;5790;-67
2024/01/28 06:46:19;;;;;;;;;;;;;;;11.20;57.47;98390.56;4192431;28;5811;-67
2024/01/28 06:48:23;;;;;;;;;;;;;;;11.19;57.41;98387.09;4199493;28;5781;-66
2024/01/28 06:50:26;;;;;;;;;;;;;;;11.20;57.14;98388.75;4191490;28;5693;-66
2024/01/28 06:52:30;;;;;;;;;;;;;;;11.20;57.32;98393.22;4191601;28;5728;-66
2024/01/28 06:54:33;;;;;;;;;;;;;;;11.18;57.06;98387.25;4199287;28;5798;-67
2024/01/28 06:56:36;;;;;;;;;;;;;;;11.16;57.45;98392.72;4198202;28;5710;-67
2024/01/28 06:58:39;;;;;;;;;;;;;;;11.16;57.29;98387.41;4184277;28;5708;-67
2024/01/28 07:00:42;;;;;;;;;;;;;;;11.17;57.48;98388.25;4191612;28;5915;-67
2024/01/28 07:02:46;;;;;;;;;;;;;;;11.17;57.53;98399.66;4193904;28;6052;-69
2024/01/28 07:04:50;;;;;;;;;;;;;;;11.17;57.23;98398.81;4193897;28;5787;-66
2024/01/28 07:06:53;;;;;;;;;;;;;;;11.17;57.21;98401.47;4197247;28;5682;-67
2024/01/28 07:08:57;;;;;;;;;;;;;;;11.18;57.35;98395.19;4195215;28;5711;-67
2024/01/28 07:11:01;;;;;;;;;;;;;;;11.18;57.24;98393.38;4191169;28;6217;-67
2024/01/28 07:13:05;;;;;;;;;;;;;;;11.17;57.66;98394.38;4197376;28;6318;-67
2024/01/28 07:15:09;;;;;;;;;;;;;;;11.18;57.44;98396.03;4193514;28;5803;-67
2024/01/28 07:17:12;;;;;;;;;;;;;;;11.20;57.67;98395.84;4190981;28;6501;-67
2024/01/28 07:19:15;;;;;;;;;;;;;;;11.20;57.61;98394.03;4191097;28;5794;-67
2024/01/28 07:21:19;;;;;;;;;;;;;;;11.21;57.67;98403.66;4190502;28;5960;-67
2024/01/28 07:23:22;;;;;;;;;;;;;;;11.21;57.51;98392.22;4197658;28;5686;-67
2024/01/28 07:25:26;;;;;;;;;;;;;;;11.19;57.79;98402.16;4187807;28;6393;-67
2024/01/28 07:27:29;;;;;;;;;;;;;;;11.20;57.47;98406.44;4199288;28;5792;-67
2024/01/28 07:29:32;;;;;;;;;;;;;;;11.22;57.49;98401.84;4191236;28;5858;-67
2024/01/28 07:31:34;;;;;;;;;;;;;;;11.22;57.44;98410.63;4201468;28;5683;-67
2024/01/28 07:33:37;;;;;;;;;;;;;;;11.24;57.75;98405.16;4202503;28;5800;-67
2024/01/28 07:35:40;;;;;;;;;;;;;;;11.24;57.36;98405.16;4196099;28;5697;-67
2024/01/28 07:37:45;;;;;;;;;;;;;;;11.22;57.45;98413.28;4196431;28;5849;-66
2024/01/28 07:39:48;;;;;;;;;;;;;;;11.20;57.32;98411.75;4195399;28;5795;-66
2024/01/28 07:41:51;;;;;;;;;;;;;;;11.17;57.48;98410.25;4192684;28;5773;-67
2024/01/28 07:43:54;;;;;;;;;;;;;;;11.20;57.37;98414.38;4197896;28;5683;-66
2024/01/28 07:45:57;;;;;;;;;;;;;;;11.19;57.47;98408.28;4197475;28;5829;-67
2024/01/28 07:48:00;;;;;;;;;;;;;;;11.23;57.51;98408.81;4198997;28;5675;-67
2024/01/28 07:50:05;;;;;;;;;;;;;;;11.23;57.35;98409.63;4201585;28;5722;-68
2024/01/28 07:52:08;;;;;;;;;;;;;;;11.24;57.37;98410.47;4199338;28;5761;-67
2024/01/28 07:54:13;;;;;;;;;;;;;;;11.24;57.52;98411.28;4200953;28;5691;-67
2024/01/28 07:56:16;;;;;;;;;;;;;;;11.26;57.43;98406.66;4192987;28;5678;-67
2024/01/28 07:58:19;;;;;;;;;;;;;;;11.26;57.59;98404.00;4198887;28;5814;-67
2024/01/28 08:00:22;;;;;;;;;;;;;;;11.26;57.27;98403.19;4191774;28;5904;-67
2024/01/28 08:02:25;;;;;;;;;;;;;;;11.26;57.55;98404.00;4200726;28;5753;-66
2024/01/28 08:04:28;;;;;;;;;;;;;;;11.28;57.36;98406.50;4185017;28;5711;-66
2024/01/28 08:06:31;;;;;;;;;;;;;;;11.28;57.50;98409.16;4194576;28;5811;-67
2024/01/28 08:08:34;;;;;;;;;;;;;;;11.27;57.52;98403.03;4189995;28;5715;-67
2024/01/28 08:10:38;;;;;;;;;;;;;;;11.28;57.52;98399.38;4192304;28;5103;-67
2024/01/28 08:12:41;;;;;;;;;;;;;;;11.30;57.23;98401.88;4198460;28;6541;-67
2024/01/28 08:14:44;;;;;;;;;;;;;;;11.30;57.14;98410.63;4201164;28;5738;-67
2024/01/28 08:16:47;;;;;;;;;;;;;;;11.30;57.44;98399.22;4197612;28;5712;-67
2024/01/28 08:18:50;;;;;;;;;;;;;;;11.31;57.43;98408.81;4197075;28;5797;-67
2024/01/28 08:20:53;;;;;;;;;;;;;;;11.31;57.07;98414.13;4200409;28;5878;-66
2024/01/28 08:22:56;;;;;;;;;;;;;;;11.31;57.25;98406.16;4197678;28;5802;-67
2024/01/28 08:24:59;;;;;;;;;;;;;;;11.33;57.51;98406.88;4198397;28;5701;-67
2024/01/28 08:27:04;;;;;;;;;;;;;;;11.33;57.18;98410.34;4201372;28;5698;-66
2024/01/28 08:29:07;;;;;;;;;;;;;;;11.34;57.48;98405.88;4197824;28;5683;-67
2024/01/28 08:31:10;;;;;;;;;;;;;;;11.34;57.17;98412.00;4201525;28;5827;-67
2024/01/28 08:33:13;;;;;;;;;;;;;;;11.33;57.29;98404.22;4201380;28;5682;-67
2024/01/28 08:35:17;;;;;;;;;;;;;;;11.33;57.42;98414.81;4200070;28;6392;-67
2024/01/28 08:37:22;;;;;;;;;;;;;;;11.32;57.41;98413.13;4191375;28;5841;-67
2024/01/28 08:39:25;;;;;;;;;;;;;;;11.30;57.45;98413.28;4192622;28;5759;-67
2024/01/28 08:41:28;;;;;;;;;;;;;;;11.30;57.44;98417.75;4200566;28;5698;-67
2024/01/28 08:43:37;;;;;;;;;;;;;;;11.29;57.26;98414.28;4192663;28;5706;-67
2024/01/28 08:45:40;;;;;;;;;;;;;;;11.31;57.40;98414.13;4194705;28;5797;-66
2024/01/28 08:47:43;;;;;;;;;;;;;;;11.31;57.41;98412.28;4199139;28;5813;-67
2024/01/28 08:49:48;;;;;;;;;;;;;;;11.32;57.30;98413.13;4196183;28;5940;-67
2024/01/28 08:51:52;;;;;;;;;;;;;;;11.32;57.38;98402.53;4196730;28;5757;-67
2024/01/28 08:53:55;;;;;;;;;;;;;;;11.34;57.31;98413.81;4200752;28;5804;-67
2024/01/28 08:55:58;;;;;;;;;;;;;;;11.33;56.96;98410.34;4196670;28;6070;-67
2024/01/28 08:58:01;;;;;;;;;;;;;;;11.33;57.00;98417.47;4200106;28;5746;-67
2024/01/28 09:00:11;;;;;;;;;;;;;;;11.35;57.15;98413.66;4195467;28;5776;-67
2024/01/28 09:02:14;;;;;;;;;;;;;;;11.36;56.92;98415.31;4192636;28;5861;-66
2024/01/28 09:04:18;;;;;;;;;;;;;;;11.37;56.86;98406.38;4192251;28;5792;-67
2024/01/28 09:06:21;;;;;;;;;;;;;;;11.38;56.96;98407.22;4188922;28;5792;-67
2024/01/28 09:08:25;;;;;;;;;;;;;;;11.38;56.72;98413.34;4192951;28;5785;-66
2024/01/28 09:10:27;;;;;;;;;;;;;;;11.39;56.60;98400.91;4192576;28;5082;-67
2024/01/28 09:12:30;;;;;;;;;;;;;;;11.37;56.54;98405.56;4191813;28;5698;-66
2024/01/28 09:14:33;;;;;;;;;;;;;;;11.37;56.75;98408.19;4199445;28;5695;-66
2024/01/28 09:16:36;;;;;;;;;;;;;;;11.40;56.45;98409.69;4200553;28;5695;-66
2024/01/28 09:18:42;;;;;;;;;;;;;;;11.39;56.49;98414.16;4192556;28;5811;-67
2024/01/28 09:20:45;;;;;;;;;;;;;;;11.42;56.21;98413.00;4191610;28;5616;-67
2024/01/28 09:22:48;;;;;;;;;;;;;;;11.42;56.19;98416.47;4194382;28;5714;-67
2024/01/28 09:24:51;;;;;;;;;;;;;;;11.42;56.27;98415.66;4196720;28;5678;-69
2024/01/28 09:26:53;;;;;;;;;;;;;;;11.43;56.46;98412.84;4194287;28;5772;-67
2024/01/28 09:28:56;;;;;;;;;;;;;;;11.44;56.15;98401.28;4194401;28;5836;-67
2024/01/28 09:30:59;;;;;;;;;;;;;;;11.43;56.10;98417.31;4190820;28;5698;-64
2024/01/28 09:33:05;;;;;;;;;;;;;;;11.40;56.08;98407.88;4197416;28;5686;-65
2024/01/28 09:35:08;;;;;;;;;;;;;;;11.39;56.08;98419.47;4198988;28;5679;-65
2024/01/28 09:37:11;;;;;;;;;;;;;;;11.37;55.89;98416.97;4196149;28;5900;-65
2024/01/28 09:39:14;;;;;;;;;;;;;;;11.36;55.97;98414.50;4191266;28;5678;-65
2024/01/28 09:41:27;;;;;;;;;;;;;;;11.35;55.94;98420.78;4193115;28;5776;-66
2024/01/28 09:43:30;;;;;;;;;;;;;;;11.35;55.93;98423.41;4197846;28;5682;-65
2024/01/28 09:45:33;;;;;;;;;;;;;;;11.35;55.61;98418.13;4185143;28;5700;-65
2024/01/28 09:47:36;;;;;;;;;;;;;;;11.36;55.97;98419.78;4200249;28;5701;-65
2024/01/28 09:49:43;;;;;;;;;;;;;;;11.37;55.74;98416.16;4188772;28;5737;-64
2024/01/28 09:51:46;;;;;;;;;;;;;;;11.39;55.74;98424.75;4195063;28;5792;-64
2024/01/28 09:53:49;;;;;;;;;;;;;;;11.41;55.58;98424.59;4198833;28;5909;-64
2024/01/28 09:55:52;;;;;;;;;;;;;;;11.41;55.77;98425.41;4192137;28;5781;-65
2024/01/28 09:57:55;;;;;;;;;;;;;;;11.43;55.71;98431.38;4188758;28;5846;-65
2024/01/28 09:59:59;;;;;;;;;;;;;;;11.42;55.51;98427.06;4186951;28;5894;-65
2024/01/28 10:02:02;;;;;;;;;;;;;;;11.44;55.35;98437.50;4186769;28;5666;-65
2024/01/28 10:04:07;;;;;;;;;;;;;;;11.44;55.24;98433.06;4183822;28;5687;-65
2024/01/28 10:06:11;;;;;;;;;;;;;;;11.43;55.05;98436.69;4195891;28;5681;-65
2024/01/28 10:08:15;;;;;;;;;;;;;;;11.38;55.02;98439.81;4198426;28;5678;-65
2024/01/28 10:10:18;;;;;;;;;;;;;;;11.38;55.11;98444.28;4191338;28;5803;-65
2024/01/28 10:12:21;;;;;;;;;;;;;;;11.40;55.04;98442.28;4193783;28;5687;-65
2024/01/28 10:14:25;;;;;;;;;;;;;;;11.38;55.25;98444.28;4192783;28;5796;-64
2024/01/28 10:16:31;;;;;;;;;;;;;;;11.38;55.10;98445.09;4192397;28;5673;-65
2024/01/28 10:18:34;;;;;;;;;;;;;;;11.38;55.24;98434.53;4198574;28;5816;-65
2024/01/28 10:20:38;;;;;;;;;;;;;;;11.40;55.34;98446.75;4197388;28;6307;-65
2024/01/28 10:22:42;;;;;;;;;;;;;;;11.43;55.28;98446.44;4192113;28;6664;-65
2024/01/28 10:24:45;;;;;;;;;;;;;;;11.43;55.08;98444.63;4193384;28;5859;-64
2024/01/28 10:26:48;;;;;;;;;;;;;;;11.43;55.28;98441.16;4196008;28;5818;-65
2024/01/28 10:28:52;;;;;;;;;;;;;;;11.42;54.88;98440.31;4190758;28;5845;-64
2024/01/28 10:30:55;;;;;;;;;;;;;;;11.43;55.12;98441.16;4195253;28;5097;-65
2024/01/28 10:32:57;;;;;;;;;;;;;;;11.43;54.71;98439.31;4196540;28;5719;-65
2024/01/28 10:35:00;;;;;;;;;;;;;;;11.43;55.06;98439.31;4194982;28;6397;-65
2024/01/28 10:37:06;;;;;;;;;;;;;;;11.41;54.69;98433.38;4187145;28;5802;-65
2024/01/28 10:39:16;;;;;;;;;;;;;;;11.41;54.79;98433.38;4187149;28;6013;-65
2024/01/28 10:41:20;;;;;;;;;;;;;;;11.42;55.20;98429.72;4188289;28;5692;-66
2024/01/28 10:43:27;;;;;;;;;;;;;;;11.44;54.96;98433.06;4195482;28;5777;-65
2024/01/28 10:45:32;;;;;;;;;;;;;;;11.42;54.95;98419.13;4196842;28;5655;-65
2024/01/28 10:47:36;;;;;;;;;;;;;;;11.43;54.73;98425.25;4195503;28;5678;-65
2024/01/28 10:49:43;;;;;;;;;;;;;;;11.44;55.06;98424.25;4197196;28;5679;-65
2024/01/28 10:51:51;;;;;;;;;;;;;;;11.44;55.04;98421.63;4199851;28;5694;-64